sensor_id;sensor_type;location;lat;lon;timestamp;temperature;humidity
9723;DHT22;4900;49.306;8.500;2023-06-01T00:01:58;18.82;49.59
9723;DHT22;4900;49.306;8.500;2023-06-01T00:04:23;18.76;49.64
9723;DHT22;4900;49.306;8.500;2023-06-01T00:06:49;18.75;49.70
9723;DHT22;4900;49.306;8.500;2023-06-01T00:09:14;18.76;49.65
9723;DHT22;4900;49.306;8.500;2023-06-01T00:11:40;18.69;49.89
9723;DHT22;4900;49.306;8.500;2023-06-01T00:14:05;18.68;50.36
9723;DHT22;4900;49.306;8.500;2023-06-01T00:16:31;18.65;50.29
9723;DHT22;4900;49.306;8.500;2023-06-01T00:18:57;18.64;50.62
9723;DHT22;4900;49.306;8.500;2023-06-01T00:21:26;18.60;50.79
9723;DHT22;4900;49.306;8.500;2023-06-01T00:23:51;18.51;51.17
9723;DHT22;4900;49.306;8.500;2023-06-01T00:26:17;18.48;51.52
9723;DHT22;4900;49.306;8.500;2023-06-01T00:28:43;18.47;51.72
9723;DHT22;4900;49.306;8.500;2023-06-01T00:31:08;18.41;51.49
9723;DHT22;4900;49.306;8.500;2023-06-01T00:33:34;18.36;51.97
9723;DHT22;4900;49.306;8.500;2023-06-01T00:35:59;18.34;51.84
9723;DHT22;4900;49.306;8.500;2023-06-01T00:38:24;18.33;51.77
9723;DHT22;4900;49.306;8.500;2023-06-01T00:40:50;18.33;51.79
9723;DHT22;4900;49.306;8.500;2023-06-01T00:43:17;18.30;51.85
9723;DHT22;4900;49.306;8.500;2023-06-01T00:45:43;18.29;51.87
9723;DHT22;4900;49.306;8.500;2023-06-01T00:48:09;18.27;51.79
9723;DHT22;4900;49.306;8.500;2023-06-01T00:50:35;18.24;51.82
9723;DHT22;4900;49.306;8.500;2023-06-01T00:53:03;18.23;51.95
9723;DHT22;4900;49.306;8.500;2023-06-01T00:55:30;18.19;52.14
9723;DHT22;4900;49.306;8.500;2023-06-01T00:57:56;18.16;52.41
9723;DHT22;4900;49.306;8.500;2023-06-01T01:00:24;18.10;52.55
9723;DHT22;4900;49.306;8.500;2023-06-01T01:02:51;18.08;52.71
9723;DHT22;4900;49.306;8.500;2023-06-01T01:05:17;18.03;53.10
9723;DHT22;4900;49.306;8.500;2023-06-01T01:08:18;18.03;53.04
9723;DHT22;4900;49.306;8.500;2023-06-01T01:11:01;18.01;53.04
9723;DHT22;4900;49.306;8.500;2023-06-01T01:13:37;17.98;53.26
9723;DHT22;4900;49.306;8.500;2023-06-01T01:18:57;17.99;53.32
9723;DHT22;4900;49.306;8.500;2023-06-01T01:21:31;17.94;53.64
9723;DHT22;4900;49.306;8.500;2023-06-01T01:24:31;17.91;53.76
9723;DHT22;4900;49.306;8.500;2023-06-01T01:29:43;17.84;54.10
9723;DHT22;4900;49.306;8.500;2023-06-01T01:32:09;17.81;54.50
9723;DHT22;4900;49.306;8.500;2023-06-01T01:34:37;17.78;54.44
9723;DHT22;4900;49.306;8.500;2023-06-01T01:37:04;17.78;54.52
9723;DHT22;4900;49.306;8.500;2023-06-01T01:39:29;17.73;54.54
9723;DHT22;4900;49.306;8.500;2023-06-01T01:41:55;17.68;54.71
9723;DHT22;4900;49.306;8.500;2023-06-01T01:44:20;17.64;55.29
9723;DHT22;4900;49.306;8.500;2023-06-01T01:46:54;17.61;55.25
9723;DHT22;4900;49.306;8.500;2023-06-01T01:49:31;17.57;55.39
9723;DHT22;4900;49.306;8.500;2023-06-01T01:52:05;17.53;55.53
9723;DHT22;4900;49.306;8.500;2023-06-01T01:54:37;17.50;55.65
9723;DHT22;4900;49.306;8.500;2023-06-01T01:57:04;17.46;55.69
9723;DHT22;4900;49.306;8.500;2023-06-01T01:59:30;17.43;55.74
9723;DHT22;4900;49.306;8.500;2023-06-01T02:01:56;17.41;55.98
9723;DHT22;4900;49.306;8.500;2023-06-01T02:04:22;17.39;55.88
9723;DHT22;4900;49.306;8.500;2023-06-01T02:06:47;17.37;55.98
9723;DHT22;4900;49.306;8.500;2023-06-01T02:09:13;17.33;56.09
9723;DHT22;4900;49.306;8.500;2023-06-01T02:11:38;17.30;56.31
9723;DHT22;4900;49.306;8.500;2023-06-01T02:14:04;17.26;56.46
9723;DHT22;4900;49.306;8.500;2023-06-01T02:16:29;17.22;56.55
9723;DHT22;4900;49.306;8.500;2023-06-01T02:18:55;17.20;56.63
9723;DHT22;4900;49.306;8.500;2023-06-01T02:21:23;17.20;56.67
9723;DHT22;4900;49.306;8.500;2023-06-01T02:23:49;17.16;56.73
9723;DHT22;4900;49.306;8.500;2023-06-01T02:26:14;17.16;56.76
9723;DHT22;4900;49.306;8.500;2023-06-01T02:28:41;17.12;56.80
9723;DHT22;4900;49.306;8.500;2023-06-01T02:31:08;17.11;56.86
9723;DHT22;4900;49.306;8.500;2023-06-01T02:33:34;17.08;56.96
9723;DHT22;4900;49.306;8.500;2023-06-01T02:36:00;17.04;57.04
9723;DHT22;4900;49.306;8.500;2023-06-01T02:38:26;17.02;57.11
9723;DHT22;4900;49.306;8.500;2023-06-01T02:40:52;16.98;57.19
9723;DHT22;4900;49.306;8.500;2023-06-01T02:43:17;16.92;57.47
9723;DHT22;4900;49.306;8.500;2023-06-01T02:45:43;16.87;57.54
9723;DHT22;4900;49.306;8.500;2023-06-01T02:48:08;16.87;57.69
9723;DHT22;4900;49.306;8.500;2023-06-01T02:50:35;16.83;57.72
9723;DHT22;4900;49.306;8.500;2023-06-01T02:53:00;16.84;57.75
9723;DHT22;4900;49.306;8.500;2023-06-01T02:55:26;16.81;57.84
9723;DHT22;4900;49.306;8.500;2023-06-01T02:57:52;16.75;57.85
9723;DHT22;4900;49.306;8.500;2023-06-01T03:00:17;16.72;58.07
9723;DHT22;4900;49.306;8.500;2023-06-01T03:02:46;16.71;58.17
9723;DHT22;4900;49.306;8.500;2023-06-01T03:05:12;16.68;58.32
9723;DHT22;4900;49.306;8.500;2023-06-01T03:07:45;16.69;58.28
9723;DHT22;4900;49.306;8.500;2023-06-01T03:10:11;16.67;58.41
9723;DHT22;4900;49.306;8.500;2023-06-01T03:12:37;16.63;58.50
9723;DHT22;4900;49.306;8.500;2023-06-01T03:15:03;16.61;58.56
9723;DHT22;4900;49.306;8.500;2023-06-01T03:17:30;16.60;58.54
9723;DHT22;4900;49.306;8.500;2023-06-01T03:19:55;16.60;58.57
9723;DHT22;4900;49.306;8.500;2023-06-01T03:22:21;16.60;58.73
9723;DHT22;4900;49.306;8.500;2023-06-01T03:24:47;16.56;58.81
9723;DHT22;4900;49.306;8.500;2023-06-01T03:27:16;16.57;58.83
9723;DHT22;4900;49.306;8.500;2023-06-01T03:29:41;16.56;58.84
9723;DHT22;4900;49.306;8.500;2023-06-01T03:32:07;16.56;58.77
9723;DHT22;4900;49.306;8.500;2023-06-01T03:34:33;16.56;58.76
9723;DHT22;4900;49.306;8.500;2023-06-01T03:37:02;16.54;58.74
9723;DHT22;4900;49.306;8.500;2023-06-01T03:39:32;16.53;58.86
9723;DHT22;4900;49.306;8.500;2023-06-01T03:41:59;16.51;58.90
9723;DHT22;4900;49.306;8.500;2023-06-01T03:44:24;16.51;58.99
9723;DHT22;4900;49.306;8.500;2023-06-01T03:46:50;16.51;59.12
9723;DHT22;4900;49.306;8.500;2023-06-01T03:49:15;16.51;59.30
9723;DHT22;4900;49.306;8.500;2023-06-01T03:51:41;16.49;59.40
9723;DHT22;4900;49.306;8.500;2023-06-01T03:54:06;16.49;59.43
9723;DHT22;4900;49.306;8.500;2023-06-01T03:56:32;16.53;59.39
9723;DHT22;4900;49.306;8.500;2023-06-01T03:58:58;16.54;59.36
9723;DHT22;4900;49.306;8.500;2023-06-01T04:01:24;16.54;59.26
9723;DHT22;4900;49.306;8.500;2023-06-01T04:03:53;16.57;59.20
9723;DHT22;4900;49.306;8.500;2023-06-01T04:06:18;16.61;59.18
9723;DHT22;4900;49.306;8.500;2023-06-01T04:08:44;16.64;59.13
9723;DHT22;4900;49.306;8.500;2023-06-01T04:11:20;16.67;58.97
9723;DHT22;4900;49.306;8.500;2023-06-01T04:13:47;16.68;58.89
9723;DHT22;4900;49.306;8.500;2023-06-01T04:16:13;16.71;59.02
9723;DHT22;4900;49.306;8.500;2023-06-01T04:18:38;16.71;59.09
9723;DHT22;4900;49.306;8.500;2023-06-01T04:21:04;16.72;59.01
9723;DHT22;4900;49.306;8.500;2023-06-01T04:23:30;16.75;59.02
9723;DHT22;4900;49.306;8.500;2023-06-01T04:25:56;16.75;59.27
9723;DHT22;4900;49.306;8.500;2023-06-01T04:28:25;16.77;59.13
9723;DHT22;4900;49.306;8.500;2023-06-01T04:30:52;16.84;58.97
9723;DHT22;4900;49.306;8.500;2023-06-01T04:33:17;16.85;58.80
9723;DHT22;4900;49.306;8.500;2023-06-01T04:35:43;16.92;58.51
9723;DHT22;4900;49.306;8.500;2023-06-01T04:38:09;16.92;58.37
9723;DHT22;4900;49.306;8.500;2023-06-01T04:40:35;16.96;58.40
9723;DHT22;4900;49.306;8.500;2023-06-01T04:43:00;16.96;58.91
9723;DHT22;4900;49.306;8.500;2023-06-01T04:45:28;16.98;58.84
9723;DHT22;4900;49.306;8.500;2023-06-01T04:47:56;17.04;58.94
9723;DHT22;4900;49.306;8.500;2023-06-01T04:50:23;17.05;59.07
9723;DHT22;4900;49.306;8.500;2023-06-01T04:52:48;17.09;59.10
9723;DHT22;4900;49.306;8.500;2023-06-01T04:55:15;17.12;58.99
9723;DHT22;4900;49.306;8.500;2023-06-01T04:57:42;17.16;59.15
9723;DHT22;4900;49.306;8.500;2023-06-01T05:00:12;17.20;59.32
9723;DHT22;4900;49.306;8.500;2023-06-01T05:02:42;17.24;59.25
9723;DHT22;4900;49.306;8.500;2023-06-01T05:05:13;17.24;59.24
9723;DHT22;4900;49.306;8.500;2023-06-01T05:07:40;17.29;59.35
9723;DHT22;4900;49.306;8.500;2023-06-01T05:10:08;17.36;59.32
9723;DHT22;4900;49.306;8.500;2023-06-01T05:12:35;17.43;59.35
9723;DHT22;4900;49.306;8.500;2023-06-01T05:15:02;17.46;59.57
9723;DHT22;4900;49.306;8.500;2023-06-01T05:17:28;17.51;59.38
9723;DHT22;4900;49.306;8.500;2023-06-01T05:19:53;17.58;59.38
9723;DHT22;4900;49.306;8.500;2023-06-01T05:22:18;17.66;59.50
9723;DHT22;4900;49.306;8.500;2023-06-01T05:24:44;17.67;60.04
9723;DHT22;4900;49.306;8.500;2023-06-01T05:27:10;17.70;59.92
9723;DHT22;4900;49.306;8.500;2023-06-01T05:29:35;17.77;59.87
9723;DHT22;4900;49.306;8.500;2023-06-01T05:32:00;17.84;59.77
9723;DHT22;4900;49.306;8.500;2023-06-01T05:34:26;17.91;59.86
9723;DHT22;4900;49.306;8.500;2023-06-01T05:36:51;17.91;59.70
9723;DHT22;4900;49.306;8.500;2023-06-01T05:39:17;18.01;59.89
9723;DHT22;4900;49.306;8.500;2023-06-01T05:41:42;18.05;59.95
9723;DHT22;4900;49.306;8.500;2023-06-01T05:44:08;18.10;60.18
9723;DHT22;4900;49.306;8.500;2023-06-01T05:46:33;18.22;60.01
9723;DHT22;4900;49.306;8.500;2023-06-01T05:48:59;18.31;60.16
9723;DHT22;4900;49.306;8.500;2023-06-01T05:51:25;18.43;59.87
9723;DHT22;4900;49.306;8.500;2023-06-01T05:53:51;18.54;59.57
9723;DHT22;4900;49.306;8.500;2023-06-01T05:56:16;18.86;58.97
9723;DHT22;4900;49.306;8.500;2023-06-01T05:58:42;19.40;57.47
9723;DHT22;4900;49.306;8.500;2023-06-01T06:01:08;20.06;55.92
9723;DHT22;4900;49.306;8.500;2023-06-01T06:03:34;20.69;54.21
9723;DHT22;4900;49.306;8.500;2023-06-01T06:06:00;21.38;52.74
9723;DHT22;4900;49.306;8.500;2023-06-01T06:08:26;21.96;51.19
9723;DHT22;4900;49.306;8.500;2023-06-01T06:10:52;22.51;49.88
9723;DHT22;4900;49.306;8.500;2023-06-01T06:13:18;23.06;48.83
9723;DHT22;4900;49.306;8.500;2023-06-01T06:15:43;23.45;47.73
9723;DHT22;4900;49.306;8.500;2023-06-01T06:18:09;24.03;46.61
9723;DHT22;4900;49.306;8.500;2023-06-01T06:20:35;24.51;45.81
9723;DHT22;4900;49.306;8.500;2023-06-01T06:23:01;24.76;44.95
9723;DHT22;4900;49.306;8.500;2023-06-01T06:25:26;25.23;44.13
9723;DHT22;4900;49.306;8.500;2023-06-01T06:27:52;25.65;43.36
9723;DHT22;4900;49.306;8.500;2023-06-01T06:30:17;25.96;42.61
9723;DHT22;4900;49.306;8.500;2023-06-01T06:32:43;26.33;42.25
9723;DHT22;4900;49.306;8.500;2023-06-01T06:35:08;26.78;41.49
9723;DHT22;4900;49.306;8.500;2023-06-01T06:37:41;26.93;41.01
9723;DHT22;4900;49.306;8.500;2023-06-01T06:40:07;27.17;40.56
9723;DHT22;4900;49.306;8.500;2023-06-01T06:42:33;27.44;40.42
9723;DHT22;4900;49.306;8.500;2023-06-01T06:44:58;27.68;39.99
9723;DHT22;4900;49.306;8.500;2023-06-01T06:47:24;27.90;39.67
9723;DHT22;4900;49.306;8.500;2023-06-01T06:49:52;28.29;38.90
9723;DHT22;4900;49.306;8.500;2023-06-01T06:52:18;28.52;38.51
9723;DHT22;4900;49.306;8.500;2023-06-01T06:54:43;28.58;38.64
9723;DHT22;4900;49.306;8.500;2023-06-01T06:57:09;28.98;37.78
9723;DHT22;4900;49.306;8.500;2023-06-01T06:59:35;29.23;37.28
9723;DHT22;4900;49.306;8.500;2023-06-01T07:02:02;29.48;36.87
9723;DHT22;4900;49.306;8.500;2023-06-01T07:04:29;29.84;36.40
9723;DHT22;4900;49.306;8.500;2023-06-01T07:06:55;30.14;35.65
9723;DHT22;4900;49.306;8.500;2023-06-01T07:09:21;29.85;36.28
9723;DHT22;4900;49.306;8.500;2023-06-01T07:11:46;29.55;36.41
9723;DHT22;4900;49.306;8.500;2023-06-01T07:14:13;29.82;36.59
9723;DHT22;4900;49.306;8.500;2023-06-01T07:16:39;30.10;36.42
9723;DHT22;4900;49.306;8.500;2023-06-01T07:19:04;30.24;36.24
9723;DHT22;4900;49.306;8.500;2023-06-01T07:21:30;30.19;35.97
9723;DHT22;4900;49.306;8.500;2023-06-01T07:23:55;30.05;36.29
9723;DHT22;4900;49.306;8.500;2023-06-01T07:26:21;30.36;35.60
9723;DHT22;4900;49.306;8.500;2023-06-01T07:28:50;30.27;35.90
9723;DHT22;4900;49.306;8.500;2023-06-01T07:31:19;30.44;35.71
9723;DHT22;4900;49.306;8.500;2023-06-01T07:33:44;30.75;35.10
9723;DHT22;4900;49.306;8.500;2023-06-01T07:36:10;30.93;34.97
9723;DHT22;4900;49.306;8.500;2023-06-01T07:38:35;30.95;35.30
9723;DHT22;4900;49.306;8.500;2023-06-01T07:41:01;30.89;35.02
9723;DHT22;4900;49.306;8.500;2023-06-01T07:43:26;31.03;34.73
9723;DHT22;4900;49.306;8.500;2023-06-01T07:45:52;31.19;34.51
9723;DHT22;4900;49.306;8.500;2023-06-01T07:48:17;31.22;33.97
9723;DHT22;4900;49.306;8.500;2023-06-01T07:50:43;31.54;33.41
9723;DHT22;4900;49.306;8.500;2023-06-01T07:53:08;31.67;33.19
9723;DHT22;4900;49.306;8.500;2023-06-01T07:55:34;31.65;32.66
9723;DHT22;4900;49.306;8.500;2023-06-01T07:57:59;31.79;32.85
9723;DHT22;4900;49.306;8.500;2023-06-01T08:00:26;32.19;32.53
9723;DHT22;4900;49.306;8.500;2023-06-01T08:02:51;32.40;32.26
9723;DHT22;4900;49.306;8.500;2023-06-01T08:05:18;32.61;31.88
9723;DHT22;4900;49.306;8.500;2023-06-01T08:07:44;32.70;31.43
9723;DHT22;4900;49.306;8.500;2023-06-01T08:10:12;33.05;31.02
9723;DHT22;4900;49.306;8.500;2023-06-01T08:12:39;33.73;30.14
9723;DHT22;4900;49.306;8.500;2023-06-01T08:15:05;34.05;29.24
9723;DHT22;4900;49.306;8.500;2023-06-01T08:17:31;34.18;29.27
9723;DHT22;4900;49.306;8.500;2023-06-01T08:19:56;34.50;28.82
9723;DHT22;4900;49.306;8.500;2023-06-01T08:22:22;34.87;28.73
9723;DHT22;4900;49.306;8.500;2023-06-01T08:24:49;35.09;28.38
9723;DHT22;4900;49.306;8.500;2023-06-01T08:27:20;35.36;28.07
9723;DHT22;4900;49.306;8.500;2023-06-01T08:29:47;35.73;28.19
9723;DHT22;4900;49.306;8.500;2023-06-01T08:32:14;35.91;27.80
9723;DHT22;4900;49.306;8.500;2023-06-01T08:34:39;36.08;27.29
9723;DHT22;4900;49.306;8.500;2023-06-01T08:37:05;36.57;26.63
9723;DHT22;4900;49.306;8.500;2023-06-01T08:39:31;36.59;26.65
9723;DHT22;4900;49.306;8.500;2023-06-01T08:44:37;37.04;26.31
9723;DHT22;4900;49.306;8.500;2023-06-01T08:47:04;37.03;26.71
9723;DHT22;4900;49.306;8.500;2023-06-01T08:49:34;37.00;25.85
9723;DHT22;4900;49.306;8.500;2023-06-01T08:52:03;37.28;25.17
9723;DHT22;4900;49.306;8.500;2023-06-01T08:54:29;37.21;24.80
9723;DHT22;4900;49.306;8.500;2023-06-01T08:56:59;37.55;24.76
9723;DHT22;4900;49.306;8.500;2023-06-01T08:59:25;37.83;24.86
9723;DHT22;4900;49.306;8.500;2023-06-01T09:01:53;37.96;24.15
9723;DHT22;4900;49.306;8.500;2023-06-01T09:04:18;37.80;24.12
9723;DHT22;4900;49.306;8.500;2023-06-01T09:06:44;38.01;23.80
9723;DHT22;4900;49.306;8.500;2023-06-01T09:09:11;38.27;23.88
9723;DHT22;4900;49.306;8.500;2023-06-01T09:11:39;38.21;23.49
9723;DHT22;4900;49.306;8.500;2023-06-01T09:14:21;38.62;23.38
9723;DHT22;4900;49.306;8.500;2023-06-01T09:16:47;38.92;22.12
9723;DHT22;4900;49.306;8.500;2023-06-01T09:19:13;38.93;22.54
9723;DHT22;4900;49.306;8.500;2023-06-01T09:21:39;38.80;22.70
9723;DHT22;4900;49.306;8.500;2023-06-01T09:24:20;39.02;22.59
9723;DHT22;4900;49.306;8.500;2023-06-01T09:26:48;39.03;22.25
9723;DHT22;4900;49.306;8.500;2023-06-01T09:29:13;39.27;22.29
9723;DHT22;4900;49.306;8.500;2023-06-01T09:31:43;39.58;22.51
9723;DHT22;4900;49.306;8.500;2023-06-01T09:34:13;39.89;22.34
9723;DHT22;4900;49.306;8.500;2023-06-01T09:36:53;39.86;22.72
9723;DHT22;4900;49.306;8.500;2023-06-01T09:39:22;39.90;22.27
9723;DHT22;4900;49.306;8.500;2023-06-01T09:41:58;40.14;22.11
9723;DHT22;4900;49.306;8.500;2023-06-01T09:44:33;40.10;22.17
9723;DHT22;4900;49.306;8.500;2023-06-01T09:47:09;40.49;21.86
9723;DHT22;4900;49.306;8.500;2023-06-01T09:54:39;40.64;21.49
9723;DHT22;4900;49.306;8.500;2023-06-01T09:57:05;40.78;21.44
9723;DHT22;4900;49.306;8.500;2023-06-01T09:59:43;41.05;21.09
9723;DHT22;4900;49.306;8.500;2023-06-01T10:02:20;40.51;21.04
9723;DHT22;4900;49.306;8.500;2023-06-01T10:04:51;40.85;20.89
9723;DHT22;4900;49.306;8.500;2023-06-01T10:07:18;41.16;21.01
9723;DHT22;4900;49.306;8.500;2023-06-01T10:10:04;41.23;21.02
9723;DHT22;4900;49.306;8.500;2023-06-01T10:12:31;41.34;21.06
9723;DHT22;4900;49.306;8.500;2023-06-01T10:14:56;41.30;20.98
9723;DHT22;4900;49.306;8.500;2023-06-01T10:17:23;41.74;20.81
9723;DHT22;4900;49.306;8.500;2023-06-01T10:19:49;41.62;21.01
9723;DHT22;4900;49.306;8.500;2023-06-01T10:22:14;41.68;20.71
9723;DHT22;4900;49.306;8.500;2023-06-01T10:24:42;41.81;20.28
9723;DHT22;4900;49.306;8.500;2023-06-01T10:27:33;41.68;20.39
9723;DHT22;4900;49.306;8.500;2023-06-01T10:30:00;41.74;20.19
9723;DHT22;4900;49.306;8.500;2023-06-01T10:32:47;41.99;20.00
9723;DHT22;4900;49.306;8.500;2023-06-01T10:40:36;41.72;19.33
9723;DHT22;4900;49.306;8.500;2023-06-01T10:43:02;41.98;19.46
9723;DHT22;4900;49.306;8.500;2023-06-01T10:48:12;42.19;19.39
9723;DHT22;4900;49.306;8.500;2023-06-01T10:50:40;41.43;19.31
9723;DHT22;4900;49.306;8.500;2023-06-01T10:53:31;41.38;19.31
9723;DHT22;4900;49.306;8.500;2023-06-01T10:56:27;41.46;19.41
9723;DHT22;4900;49.306;8.500;2023-06-01T11:01:43;41.68;19.64
9723;DHT22;4900;49.306;8.500;2023-06-01T11:04:09;41.81;19.24
9723;DHT22;4900;49.306;8.500;2023-06-01T11:06:38;42.00;18.98
9723;DHT22;4900;49.306;8.500;2023-06-01T11:09:09;42.08;18.64
9723;DHT22;4900;49.306;8.500;2023-06-01T11:14:18;41.72;19.09
9723;DHT22;4900;49.306;8.500;2023-06-01T11:16:45;42.05;18.90
9723;DHT22;4900;49.306;8.500;2023-06-01T11:19:20;42.25;18.83
9723;DHT22;4900;49.306;8.500;2023-06-01T11:21:59;42.30;18.64
9723;DHT22;4900;49.306;8.500;2023-06-01T11:24:33;42.53;18.83
9723;DHT22;4900;49.306;8.500;2023-06-01T11:27:10;42.81;18.46
9723;DHT22;4900;49.306;8.500;2023-06-01T11:29:36;43.05;18.50
9723;DHT22;4900;49.306;8.500;2023-06-01T11:32:03;42.81;18.26
9723;DHT22;4900;49.306;8.500;2023-06-01T11:34:38;42.86;17.79
9723;DHT22;4900;49.306;8.500;2023-06-01T11:37:05;42.92;18.30
9723;DHT22;4900;49.306;8.500;2023-06-01T11:39:31;42.57;17.96
9723;DHT22;4900;49.306;8.500;2023-06-01T11:44:31;42.30;17.94
9723;DHT22;4900;49.306;8.500;2023-06-01T11:46:58;42.71;18.18
9723;DHT22;4900;49.306;8.500;2023-06-01T11:49:24;42.64;18.46
9723;DHT22;4900;49.306;8.500;2023-06-01T11:51:51;42.54;18.17
9723;DHT22;4900;49.306;8.500;2023-06-01T11:54:25;42.62;18.15
9723;DHT22;4900;49.306;8.500;2023-06-01T11:56:52;42.53;18.23
9723;DHT22;4900;49.306;8.500;2023-06-01T11:59:17;42.48;18.52
9723;DHT22;4900;49.306;8.500;2023-06-01T12:01:46;42.79;17.92
9723;DHT22;4900;49.306;8.500;2023-06-01T12:04:13;42.43;18.29
9723;DHT22;4900;49.306;8.500;2023-06-01T12:06:38;42.58;17.96
9723;DHT22;4900;49.306;8.500;2023-06-01T12:09:05;42.94;18.09
9723;DHT22;4900;49.306;8.500;2023-06-01T12:11:32;43.10;18.10
9723;DHT22;4900;49.306;8.500;2023-06-01T12:13:58;42.99;17.97
9723;DHT22;4900;49.306;8.500;2023-06-01T12:16:24;42.39;17.85
9723;DHT22;4900;49.306;8.500;2023-06-01T12:18:53;43.01;17.84
9723;DHT22;4900;49.306;8.500;2023-06-01T12:21:19;43.17;17.88
9723;DHT22;4900;49.306;8.500;2023-06-01T12:23:52;43.49;17.68
9723;DHT22;4900;49.306;8.500;2023-06-01T12:26:17;43.54;17.88
9723;DHT22;4900;49.306;8.500;2023-06-01T12:28:51;43.81;17.39
9723;DHT22;4900;49.306;8.500;2023-06-01T12:31:18;43.64;17.64
9723;DHT22;4900;49.306;8.500;2023-06-01T12:33:45;43.53;18.07
9723;DHT22;4900;49.306;8.500;2023-06-01T12:36:11;44.15;17.91
9723;DHT22;4900;49.306;8.500;2023-06-01T12:38:52;44.01;17.97
9723;DHT22;4900;49.306;8.500;2023-06-01T12:41:18;44.06;17.97
9723;DHT22;4900;49.306;8.500;2023-06-01T12:43:44;44.29;17.32
9723;DHT22;4900;49.306;8.500;2023-06-01T12:46:20;44.19;17.64
9723;DHT22;4900;49.306;8.500;2023-06-01T12:48:47;44.43;17.77
9723;DHT22;4900;49.306;8.500;2023-06-01T12:51:12;44.39;17.65
9723;DHT22;4900;49.306;8.500;2023-06-01T12:53:38;44.50;17.54
9723;DHT22;4900;49.306;8.500;2023-06-01T12:56:04;44.37;17.16
9723;DHT22;4900;49.306;8.500;2023-06-01T12:58:30;44.39;17.11
9723;DHT22;4900;49.306;8.500;2023-06-01T13:00:56;44.55;17.12
9723;DHT22;4900;49.306;8.500;2023-06-01T13:03:22;44.56;17.32
9723;DHT22;4900;49.306;8.500;2023-06-01T13:05:48;44.75;16.79
9723;DHT22;4900;49.306;8.500;2023-06-01T13:08:15;44.78;16.60
9723;DHT22;4900;49.306;8.500;2023-06-01T13:10:41;44.80;16.56
9723;DHT22;4900;49.306;8.500;2023-06-01T13:13:07;44.64;16.85
9723;DHT22;4900;49.306;8.500;2023-06-01T13:15:33;44.53;16.75
9723;DHT22;4900;49.306;8.500;2023-06-01T13:17:59;44.26;16.76
9723;DHT22;4900;49.306;8.500;2023-06-01T13:20:24;44.36;16.95
9723;DHT22;4900;49.306;8.500;2023-06-01T13:22:51;44.62;17.14
9723;DHT22;4900;49.306;8.500;2023-06-01T13:25:17;44.75;17.00
9723;DHT22;4900;49.306;8.500;2023-06-01T13:27:44;44.62;17.04
9723;DHT22;4900;49.306;8.500;2023-06-01T13:30:10;44.84;16.86
9723;DHT22;4900;49.306;8.500;2023-06-01T13:32:36;44.68;16.85
9723;DHT22;4900;49.306;8.500;2023-06-01T13:35:01;44.81;16.92
9723;DHT22;4900;49.306;8.500;2023-06-01T13:37:27;44.77;17.39
9723;DHT22;4900;49.306;8.500;2023-06-01T13:39:52;45.12;17.79
9723;DHT22;4900;49.306;8.500;2023-06-01T13:42:17;45.26;17.86
9723;DHT22;4900;49.306;8.500;2023-06-01T13:44:43;45.36;17.16
9723;DHT22;4900;49.306;8.500;2023-06-01T13:47:12;45.21;17.19
9723;DHT22;4900;49.306;8.500;2023-06-01T13:49:41;45.11;17.38
9723;DHT22;4900;49.306;8.500;2023-06-01T13:52:07;44.97;16.72
9723;DHT22;4900;49.306;8.500;2023-06-01T13:54:33;44.90;16.60
9723;DHT22;4900;49.306;8.500;2023-06-01T13:56:59;44.78;16.81
9723;DHT22;4900;49.306;8.500;2023-06-01T13:59:24;44.59;16.60
9723;DHT22;4900;49.306;8.500;2023-06-01T14:01:50;44.57;16.78
9723;DHT22;4900;49.306;8.500;2023-06-01T14:04:16;44.43;16.79
9723;DHT22;4900;49.306;8.500;2023-06-01T14:06:42;44.36;16.84
9723;DHT22;4900;49.306;8.500;2023-06-01T14:09:09;44.23;16.88
9723;DHT22;4900;49.306;8.500;2023-06-01T14:11:34;44.18;17.15
9723;DHT22;4900;49.306;8.500;2023-06-01T14:14:00;44.32;17.91
9723;DHT22;4900;49.306;8.500;2023-06-01T14:16:25;44.46;17.36
9723;DHT22;4900;49.306;8.500;2023-06-01T14:18:50;44.63;17.39
9723;DHT22;4900;49.306;8.500;2023-06-01T14:21:16;44.77;17.39
9723;DHT22;4900;49.306;8.500;2023-06-01T14:23:41;44.98;17.24
9723;DHT22;4900;49.306;8.500;2023-06-01T14:26:10;45.04;17.23
9723;DHT22;4900;49.306;8.500;2023-06-01T14:28:36;45.18;17.04
9723;DHT22;4900;49.306;8.500;2023-06-01T14:31:01;45.00;16.84
9723;DHT22;4900;49.306;8.500;2023-06-01T14:33:26;45.09;17.14
9723;DHT22;4900;49.306;8.500;2023-06-01T14:35:52;45.18;17.19
9723;DHT22;4900;49.306;8.500;2023-06-01T14:38:18;45.23;17.06
9723;DHT22;4900;49.306;8.500;2023-06-01T14:40:43;45.18;16.75
9723;DHT22;4900;49.306;8.500;2023-06-01T14:43:08;44.92;16.60
9723;DHT22;4900;49.306;8.500;2023-06-01T14:45:34;44.84;16.52
9723;DHT22;4900;49.306;8.500;2023-06-01T14:47:59;44.66;16.70
9723;DHT22;4900;49.306;8.500;2023-06-01T14:50:25;44.78;17.00
9723;DHT22;4900;49.306;8.500;2023-06-01T14:52:50;44.68;17.13
9723;DHT22;4900;49.306;8.500;2023-06-01T14:55:16;44.62;17.04
9723;DHT22;4900;49.306;8.500;2023-06-01T14:57:42;44.50;17.30
9723;DHT22;4900;49.306;8.500;2023-06-01T15:00:08;44.56;17.32
9723;DHT22;4900;49.306;8.500;2023-06-01T15:02:34;44.71;17.26
9723;DHT22;4900;49.306;8.500;2023-06-01T15:04:59;44.60;17.60
9723;DHT22;4900;49.306;8.500;2023-06-01T15:07:25;44.63;17.16
9723;DHT22;4900;49.306;8.500;2023-06-01T15:09:50;44.44;16.84
9723;DHT22;4900;49.306;8.500;2023-06-01T15:12:18;44.13;16.79
9723;DHT22;4900;49.306;8.500;2023-06-01T15:14:44;44.06;16.87
9723;DHT22;4900;49.306;8.500;2023-06-01T15:17:09;43.60;17.17
9723;DHT22;4900;49.306;8.500;2023-06-01T15:19:35;43.56;17.48
9723;DHT22;4900;49.306;8.500;2023-06-01T15:22:01;43.53;17.49
9723;DHT22;4900;49.306;8.500;2023-06-01T15:24:26;43.56;17.64
9723;DHT22;4900;49.306;8.500;2023-06-01T15:26:52;43.54;17.43
9723;DHT22;4900;49.306;8.500;2023-06-01T15:29:17;43.36;17.59
9723;DHT22;4900;49.306;8.500;2023-06-01T15:31:43;43.09;17.92
9723;DHT22;4900;49.306;8.500;2023-06-01T15:34:09;43.09;17.84
9723;DHT22;4900;49.306;8.500;2023-06-01T15:36:35;43.03;18.07
9723;DHT22;4900;49.306;8.500;2023-06-01T15:39:02;42.94;18.12
9723;DHT22;4900;49.306;8.500;2023-06-01T15:41:29;42.85;18.12
9723;DHT22;4900;49.306;8.500;2023-06-01T15:43:55;42.74;18.15
9723;DHT22;4900;49.306;8.500;2023-06-01T15:46:20;42.72;17.87
9723;DHT22;4900;49.306;8.500;2023-06-01T15:48:45;42.89;17.84
9723;DHT22;4900;49.306;8.500;2023-06-01T15:51:11;42.78;17.58
9723;DHT22;4900;49.306;8.500;2023-06-01T15:53:36;42.95;18.11
9723;DHT22;4900;49.306;8.500;2023-06-01T15:56:02;42.95;18.38
9723;DHT22;4900;49.306;8.500;2023-06-01T15:58:28;42.88;18.06
9723;DHT22;4900;49.306;8.500;2023-06-01T16:00:53;42.36;17.93
9723;DHT22;4900;49.306;8.500;2023-06-01T16:03:19;42.33;18.07
9723;DHT22;4900;49.306;8.500;2023-06-01T16:05:44;42.16;18.10
9723;DHT22;4900;49.306;8.500;2023-06-01T16:08:10;41.77;18.26
9723;DHT22;4900;49.306;8.500;2023-06-01T16:10:35;41.71;18.49
9723;DHT22;4900;49.306;8.500;2023-06-01T16:13:01;41.38;18.33
9723;DHT22;4900;49.306;8.500;2023-06-01T16:15:26;41.11;17.89
9723;DHT22;4900;49.306;8.500;2023-06-01T16:17:52;40.81;18.33
9723;DHT22;4900;49.306;8.500;2023-06-01T16:20:17;40.69;18.69
9723;DHT22;4900;49.306;8.500;2023-06-01T16:22:43;40.69;18.74
9723;DHT22;4900;49.306;8.500;2023-06-01T16:25:09;40.47;18.76
9723;DHT22;4900;49.306;8.500;2023-06-01T16:27:35;40.27;18.20
9723;DHT22;4900;49.306;8.500;2023-06-01T16:30:01;40.03;18.43
9723;DHT22;4900;49.306;8.500;2023-06-01T16:32:27;39.95;18.65